Terminal Aerodrome Forecast
Issued by NWS Louisville, KY

Home | Current Version | Previous Version | Text Only | Print | Product List | Glossary On
Versions: 1 2 3 4 5 6 7 8 9 10 11 12 13 14 15
000
FTUS43 KLMK 241700
TAFBWG
TAF
KBWG 241729Z 2418/2518 11007KT P6SM BKN150
     FM250100 13004KT P6SM VCSH BKN050
     FM250700 16006KT 5SM -SHRA BKN015
     FM251500 19011KT P6SM BKN015=

USA.gov is the U.S. government's official web portal to all federal, state and local government web resources and services.